Hawkesbury, Canada
Current Conditions -  °F | °C
As of 2:00 AM on Thursday 23 Oct 2014 (Local Time) from CYMX Reporting Station
Broken Clouds Broken Clouds  
Wind Chill: 43°   Ceiling: 8000
Heat Index: 46°   Visibility: 25mi
Dew Point: 32°   Wind: 7mph
Humidity: 57%   Direction: 40°NE
Pressure: 30.18"   Gusts: 23mph
Location:  45.61°N, 74.61°W
Report Text: CYMX 230600Z 04006G20KT 320V080 25SM BKN080 08/00 A3018 RMK AC7 SLP222
Loading
Personal Weather Stations






























Interactive Weather Map New forecast layout! Learn more

10-Day Weather Forecast

Advertisements
Track Severe Weather on mobile